sensor_id;sensor_type;location;lat;lon;timestamp;P1;durP1;ratioP1;P2;durP2;ratioP2
83747;SDS011;73737;52.364;17.120;2024-02-26T14:26:40;12.00;;;8.30;;
83747;SDS011;73737;52.364;17.120;2024-02-26T14:29:10;15.70;;;9.00;;
83747;SDS011;73737;52.364;17.120;2024-02-26T14:31:38;16.20;;;8.70;;
83747;SDS011;73737;52.364;17.120;2024-02-26T14:34:07;21.20;;;10.10;;
83747;SDS011;73737;52.364;17.120;2024-02-26T14:36:37;16.60;;;10.00;;
83747;SDS011;73737;52.364;17.120;2024-02-26T14:39:07;16.70;;;9.90;;
83747;SDS011;73737;52.364;17.120;2024-02-26T14:41:40;15.20;;;9.10;;
83747;SDS011;73737;52.364;17.120;2024-02-26T14:44:10;20.70;;;9.40;;
83747;SDS011;73737;52.364;17.120;2024-02-26T14:46:41;18.00;;;9.60;;
83747;SDS011;73737;52.364;17.120;2024-02-26T14:49:10;19.60;;;9.80;;
83747;SDS011;73737;52.364;17.120;2024-02-26T14:51:40;19.20;;;10.80;;
83747;SDS011;73737;52.364;17.120;2024-02-26T14:54:13;20.50;;;9.90;;
83747;SDS011;73737;52.364;17.120;2024-02-26T14:56:42;18.10;;;9.40;;
83747;SDS011;73737;52.364;17.120;2024-02-26T14:59:11;16.80;;;10.10;;
83747;SDS011;73737;52.364;17.120;2024-02-26T15:01:40;15.70;;;8.60;;
83747;SDS011;73737;52.364;17.120;2024-02-26T15:04:08;19.90;;;9.30;;
83747;SDS011;73737;52.364;17.120;2024-02-26T15:06:38;22.60;;;10.90;;
83747;SDS011;73737;52.364;17.120;2024-02-26T15:09:07;18.30;;;10.20;;
83747;SDS011;73737;52.364;17.120;2024-02-26T15:11:39;22.20;;;12.60;;
83747;SDS011;73737;52.364;17.120;2024-02-26T15:14:08;20.60;;;13.70;;
83747;SDS011;73737;52.364;17.120;2024-02-26T15:16:39;21.10;;;13.50;;
83747;SDS011;73737;52.364;17.120;2024-02-26T15:19:08;20.50;;;12.70;;
83747;SDS011;73737;52.364;17.120;2024-02-26T15:21:44;18.20;;;10.90;;
83747;SDS011;73737;52.364;17.120;2024-02-26T15:24:13;16.20;;;9.80;;
83747;SDS011;73737;52.364;17.120;2024-02-26T15:26:45;20.20;;;10.10;;
83747;SDS011;73737;52.364;17.120;2024-02-26T15:29:14;19.60;;;10.60;;
83747;SDS011;73737;52.364;17.120;2024-02-26T15:31:43;19.70;;;11.20;;
83747;SDS011;73737;52.364;17.120;2024-02-26T15:34:11;20.60;;;11.70;;
83747;SDS011;73737;52.364;17.120;2024-02-26T15:36:41;21.60;;;11.10;;
83747;SDS011;73737;52.364;17.120;2024-02-26T15:39:10;19.30;;;10.20;;
83747;SDS011;73737;52.364;17.120;2024-02-26T15:41:39;20.40;;;11.10;;
83747;SDS011;73737;52.364;17.120;2024-02-26T15:44:09;22.10;;;11.10;;
83747;SDS011;73737;52.364;17.120;2024-02-26T15:46:41;24.30;;;10.80;;
83747;SDS011;73737;52.364;17.120;2024-02-26T15:49:10;19.40;;;11.40;;
83747;SDS011;73737;52.364;17.120;2024-02-26T15:51:38;22.00;;;11.00;;
83747;SDS011;73737;52.364;17.120;2024-02-26T15:54:08;22.90;;;10.80;;
83747;SDS011;73737;52.364;17.120;2024-02-26T15:56:36;20.30;;;11.10;;
83747;SDS011;73737;52.364;17.120;2024-02-26T15:59:06;23.40;;;11.80;;
83747;SDS011;73737;52.364;17.120;2024-02-26T16:01:35;24.50;;;12.90;;
83747;SDS011;73737;52.364;17.120;2024-02-26T16:04:06;25.20;;;13.80;;
83747;SDS011;73737;52.364;17.120;2024-02-26T16:06:42;25.60;;;14.60;;
83747;SDS011;73737;52.364;17.120;2024-02-26T16:09:12;26.50;;;14.00;;
83747;SDS011;73737;52.364;17.120;2024-02-26T16:11:41;23.70;;;12.70;;
83747;SDS011;73737;52.364;17.120;2024-02-26T16:14:16;28.30;;;15.10;;
83747;SDS011;73737;52.364;17.120;2024-02-26T16:17:08;26.40;;;14.30;;
83747;SDS011;73737;52.364;17.120;2024-02-26T16:19:41;27.10;;;15.30;;
83747;SDS011;73737;52.364;17.120;2024-02-26T16:22:12;28.50;;;14.20;;
83747;SDS011;73737;52.364;17.120;2024-02-26T16:24:42;26.30;;;12.50;;
83747;SDS011;73737;52.364;17.120;2024-02-26T16:27:10;27.50;;;14.50;;
83747;SDS011;73737;52.364;17.120;2024-02-26T16:29:40;21.90;;;13.50;;
83747;SDS011;73737;52.364;17.120;2024-02-26T16:32:09;20.80;;;13.20;;
83747;SDS011;73737;52.364;17.120;2024-02-26T16:34:40;22.00;;;11.90;;
83747;SDS011;73737;52.364;17.120;2024-02-26T16:37:10;20.60;;;12.60;;
83747;SDS011;73737;52.364;17.120;2024-02-26T16:39:40;22.90;;;14.20;;
83747;SDS011;73737;52.364;17.120;2024-02-26T16:42:10;22.30;;;14.00;;
83747;SDS011;73737;52.364;17.120;2024-02-26T16:44:42;22.90;;;13.00;;
83747;SDS011;73737;52.364;17.120;2024-02-26T16:47:12;22.60;;;12.90;;
83747;SDS011;73737;52.364;17.120;2024-02-26T16:49:49;28.40;;;15.10;;
83747;SDS011;73737;52.364;17.120;2024-02-26T16:52:18;25.70;;;14.80;;
83747;SDS011;73737;52.364;17.120;2024-02-26T16:54:47;25.60;;;13.70;;
83747;SDS011;73737;52.364;17.120;2024-02-26T16:57:17;27.10;;;13.80;;
83747;SDS011;73737;52.364;17.120;2024-02-26T16:59:48;27.80;;;14.30;;
83747;SDS011;73737;52.364;17.120;2024-02-26T17:02:18;29.90;;;14.20;;
83747;SDS011;73737;52.364;17.120;2024-02-26T17:04:48;23.70;;;13.50;;
83747;SDS011;73737;52.364;17.120;2024-02-26T17:07:17;24.70;;;13.00;;
83747;SDS011;73737;52.364;17.120;2024-02-26T17:09:46;23.60;;;12.40;;
83747;SDS011;73737;52.364;17.120;2024-02-26T17:12:14;24.00;;;13.80;;
83747;SDS011;73737;52.364;17.120;2024-02-26T17:14:45;27.20;;;15.10;;
83747;SDS011;73737;52.364;17.120;2024-02-26T17:17:16;24.00;;;14.70;;
83747;SDS011;73737;52.364;17.120;2024-02-26T17:20:03;26.40;;;15.50;;
83747;SDS011;73737;52.364;17.120;2024-02-26T17:22:36;22.80;;;12.90;;
83747;SDS011;73737;52.364;17.120;2024-02-26T17:25:05;27.60;;;14.40;;
83747;SDS011;73737;52.364;17.120;2024-02-26T17:27:34;22.40;;;12.30;;
83747;SDS011;73737;52.364;17.120;2024-02-26T17:30:03;23.70;;;12.70;;
83747;SDS011;73737;52.364;17.120;2024-02-26T17:32:32;22.80;;;12.50;;
83747;SDS011;73737;52.364;17.120;2024-02-26T17:35:02;23.10;;;12.40;;
83747;SDS011;73737;52.364;17.120;2024-02-26T17:37:32;22.90;;;12.60;;
83747;SDS011;73737;52.364;17.120;2024-02-26T17:40:03;17.00;;;11.10;;
83747;SDS011;73737;52.364;17.120;2024-02-26T17:42:33;19.10;;;11.90;;
83747;SDS011;73737;52.364;17.120;2024-02-26T17:45:02;23.10;;;12.00;;
83747;SDS011;73737;52.364;17.120;2024-02-26T17:47:32;21.80;;;13.30;;
83747;SDS011;73737;52.364;17.120;2024-02-26T17:50:02;22.80;;;13.10;;
83747;SDS011;73737;52.364;17.120;2024-02-26T17:52:31;25.40;;;14.80;;
83747;SDS011;73737;52.364;17.120;2024-02-26T17:55:04;26.10;;;15.40;;
83747;SDS011;73737;52.364;17.120;2024-02-26T17:57:33;23.40;;;11.80;;
83747;SDS011;73737;52.364;17.120;2024-02-26T18:00:03;24.10;;;13.80;;
83747;SDS011;73737;52.364;17.120;2024-02-26T18:02:33;29.90;;;15.10;;
83747;SDS011;73737;52.364;17.120;2024-02-26T18:05:03;26.30;;;14.10;;
83747;SDS011;73737;52.364;17.120;2024-02-26T18:07:32;26.30;;;12.30;;
83747;SDS011;73737;52.364;17.120;2024-02-26T18:10:01;18.80;;;11.50;;
83747;SDS011;73737;52.364;17.120;2024-02-26T18:12:30;19.40;;;11.50;;
83747;SDS011;73737;52.364;17.120;2024-02-26T18:15:04;20.30;;;11.80;;
83747;SDS011;73737;52.364;17.120;2024-02-26T18:17:36;22.50;;;13.10;;
83747;SDS011;73737;52.364;17.120;2024-02-26T18:20:05;22.40;;;12.40;;
83747;SDS011;73737;52.364;17.120;2024-02-26T18:22:54;26.30;;;15.00;;
83747;SDS011;73737;52.364;17.120;2024-02-26T18:25:23;30.00;;;17.20;;
83747;SDS011;73737;52.364;17.120;2024-02-26T18:27:53;28.50;;;16.50;;
83747;SDS011;73737;52.364;17.120;2024-02-26T18:30:22;27.80;;;15.90;;
83747;SDS011;73737;52.364;17.120;2024-02-26T18:32:53;29.70;;;16.30;;
83747;SDS011;73737;52.364;17.120;2024-02-26T18:35:23;28.10;;;15.40;;
83747;SDS011;73737;52.364;17.120;2024-02-26T18:37:53;28.20;;;15.70;;
83747;SDS011;73737;52.364;17.120;2024-02-26T18:40:22;28.60;;;16.50;;
83747;SDS011;73737;52.364;17.120;2024-02-26T18:42:52;26.00;;;14.60;;
83747;SDS011;73737;52.364;17.120;2024-02-26T18:45:22;28.60;;;16.20;;
83747;SDS011;73737;52.364;17.120;2024-02-26T18:47:52;26.40;;;16.30;;
83747;SDS011;73737;52.364;17.120;2024-02-26T18:50:23;31.80;;;17.00;;
83747;SDS011;73737;52.364;17.120;2024-02-26T18:52:55;30.70;;;16.80;;
83747;SDS011;73737;52.364;17.120;2024-02-26T18:55:30;30.60;;;16.90;;
83747;SDS011;73737;52.364;17.120;2024-02-26T18:58:02;34.20;;;18.70;;
83747;SDS011;73737;52.364;17.120;2024-02-26T19:00:36;35.40;;;17.30;;
83747;SDS011;73737;52.364;17.120;2024-02-26T19:03:06;34.70;;;17.80;;
83747;SDS011;73737;52.364;17.120;2024-02-26T19:05:38;33.40;;;18.30;;
83747;SDS011;73737;52.364;17.120;2024-02-26T19:08:08;31.10;;;15.40;;
83747;SDS011;73737;52.364;17.120;2024-02-26T19:10:39;32.00;;;18.10;;
83747;SDS011;73737;52.364;17.120;2024-02-26T19:13:09;29.20;;;17.40;;
83747;SDS011;73737;52.364;17.120;2024-02-26T19:15:39;31.10;;;17.20;;
83747;SDS011;73737;52.364;17.120;2024-02-26T19:18:10;34.10;;;18.30;;
83747;SDS011;73737;52.364;17.120;2024-02-26T19:20:44;34.70;;;17.80;;
83747;SDS011;73737;52.364;17.120;2024-02-26T19:23:16;35.30;;;19.50;;
83747;SDS011;73737;52.364;17.120;2024-02-26T19:25:47;31.40;;;17.10;;
83747;SDS011;73737;52.364;17.120;2024-02-26T19:28:24;30.40;;;17.00;;
83747;SDS011;73737;52.364;17.120;2024-02-26T19:30:53;32.60;;;16.70;;
83747;SDS011;73737;52.364;17.120;2024-02-26T19:33:28;34.20;;;19.30;;
83747;SDS011;73737;52.364;17.120;2024-02-26T19:35:59;37.80;;;20.50;;
83747;SDS011;73737;52.364;17.120;2024-02-26T19:38:40;28.60;;;16.50;;
83747;SDS011;73737;52.364;17.120;2024-02-26T19:41:14;35.70;;;20.20;;
83747;SDS011;73737;52.364;17.120;2024-02-26T19:43:45;34.10;;;18.80;;
83747;SDS011;73737;52.364;17.120;2024-02-26T19:46:15;37.10;;;19.60;;
83747;SDS011;73737;52.364;17.120;2024-02-26T19:48:51;37.20;;;21.10;;
83747;SDS011;73737;52.364;17.120;2024-02-26T19:51:26;39.70;;;19.60;;
83747;SDS011;73737;52.364;17.120;2024-02-26T19:54:08;38.10;;;19.50;;
83747;SDS011;73737;52.364;17.120;2024-02-26T19:56:43;32.30;;;18.60;;
83747;SDS011;73737;52.364;17.120;2024-02-26T19:59:16;34.50;;;17.40;;
83747;SDS011;73737;52.364;17.120;2024-02-26T20:01:54;34.90;;;20.00;;
83747;SDS011;73737;52.364;17.120;2024-02-26T20:04:45;37.10;;;18.80;;
83747;SDS011;73737;52.364;17.120;2024-02-26T20:07:17;33.60;;;19.00;;
83747;SDS011;73737;52.364;17.120;2024-02-26T20:09:50;30.30;;;15.30;;
83747;SDS011;73737;52.364;17.120;2024-02-26T20:12:21;26.90;;;15.00;;
83747;SDS011;73737;52.364;17.120;2024-02-26T20:14:53;31.50;;;16.90;;
83747;SDS011;73737;52.364;17.120;2024-02-26T20:17:27;26.90;;;15.20;;
83747;SDS011;73737;52.364;17.120;2024-02-26T20:19:57;34.60;;;16.90;;
83747;SDS011;73737;52.364;17.120;2024-02-26T20:22:28;30.60;;;16.20;;
83747;SDS011;73737;52.364;17.120;2024-02-26T20:27:31;32.60;;;17.40;;
83747;SDS011;73737;52.364;17.120;2024-02-26T20:30:01;30.10;;;15.70;;
83747;SDS011;73737;52.364;17.120;2024-02-26T20:32:32;29.30;;;18.00;;
83747;SDS011;73737;52.364;17.120;2024-02-26T20:35:05;33.90;;;19.30;;
83747;SDS011;73737;52.364;17.120;2024-02-26T20:37:37;35.10;;;19.90;;
83747;SDS011;73737;52.364;17.120;2024-02-26T20:40:09;36.90;;;19.30;;
83747;SDS011;73737;52.364;17.120;2024-02-26T20:42:40;28.00;;;16.00;;
83747;SDS011;73737;52.364;17.120;2024-02-26T20:45:09;26.90;;;14.70;;
83747;SDS011;73737;52.364;17.120;2024-02-26T20:47:40;33.10;;;17.50;;
83747;SDS011;73737;52.364;17.120;2024-02-26T20:50:12;30.30;;;17.00;;
83747;SDS011;73737;52.364;17.120;2024-02-26T20:52:43;26.50;;;15.90;;
83747;SDS011;73737;52.364;17.120;2024-02-26T20:55:12;27.80;;;17.80;;
83747;SDS011;73737;52.364;17.120;2024-02-26T20:57:43;32.40;;;17.90;;
83747;SDS011;73737;52.364;17.120;2024-02-26T21:00:13;32.10;;;17.60;;
83747;SDS011;73737;52.364;17.120;2024-02-26T21:02:43;33.90;;;16.70;;
83747;SDS011;73737;52.364;17.120;2024-02-26T21:05:13;29.80;;;17.80;;
83747;SDS011;73737;52.364;17.120;2024-02-26T21:07:43;29.50;;;17.40;;
83747;SDS011;73737;52.364;17.120;2024-02-26T21:10:12;29.10;;;17.70;;
83747;SDS011;73737;52.364;17.120;2024-02-26T21:12:41;33.20;;;18.60;;
83747;SDS011;73737;52.364;17.120;2024-02-26T21:15:18;32.10;;;18.60;;
83747;SDS011;73737;52.364;17.120;2024-02-26T21:17:47;34.50;;;19.00;;
83747;SDS011;73737;52.364;17.120;2024-02-26T21:20:16;31.30;;;18.00;;
83747;SDS011;73737;52.364;17.120;2024-02-26T21:22:47;32.80;;;18.00;;
83747;SDS011;73737;52.364;17.120;2024-02-26T21:25:17;32.70;;;17.80;;
83747;SDS011;73737;52.364;17.120;2024-02-26T21:27:46;30.80;;;17.90;;
83747;SDS011;73737;52.364;17.120;2024-02-26T21:30:15;29.70;;;16.10;;
83747;SDS011;73737;52.364;17.120;2024-02-26T21:32:43;27.80;;;15.80;;
83747;SDS011;73737;52.364;17.120;2024-02-26T21:35:12;29.40;;;15.40;;
83747;SDS011;73737;52.364;17.120;2024-02-26T21:37:43;33.70;;;17.20;;
83747;SDS011;73737;52.364;17.120;2024-02-26T21:40:13;30.50;;;18.40;;
83747;SDS011;73737;52.364;17.120;2024-02-26T21:42:42;29.60;;;16.30;;
83747;SDS011;73737;52.364;17.120;2024-02-26T21:45:11;31.10;;;16.70;;
83747;SDS011;73737;52.364;17.120;2024-02-26T21:47:39;28.10;;;15.80;;
83747;SDS011;73737;52.364;17.120;2024-02-26T21:50:08;29.80;;;16.90;;
83747;SDS011;73737;52.364;17.120;2024-02-26T21:52:37;29.30;;;15.70;;
83747;SDS011;73737;52.364;17.120;2024-02-26T21:55:08;29.50;;;15.90;;
83747;SDS011;73737;52.364;17.120;2024-02-26T21:57:39;34.00;;;18.10;;
83747;SDS011;73737;52.364;17.120;2024-02-26T22:00:08;35.30;;;17.80;;
83747;SDS011;73737;52.364;17.120;2024-02-26T22:02:41;36.80;;;19.30;;
83747;SDS011;73737;52.364;17.120;2024-02-26T22:05:13;30.60;;;16.40;;
83747;SDS011;73737;52.364;17.120;2024-02-26T22:07:42;25.00;;;14.50;;
83747;SDS011;73737;52.364;17.120;2024-02-26T22:10:11;34.00;;;18.10;;
83747;SDS011;73737;52.364;17.120;2024-02-26T22:12:40;32.60;;;17.70;;
83747;SDS011;73737;52.364;17.120;2024-02-26T22:15:09;38.20;;;19.80;;
83747;SDS011;73737;52.364;17.120;2024-02-26T22:17:39;34.10;;;18.90;;
83747;SDS011;73737;52.364;17.120;2024-02-26T22:20:09;39.70;;;19.80;;
83747;SDS011;73737;52.364;17.120;2024-02-26T22:22:38;31.30;;;16.60;;
83747;SDS011;73737;52.364;17.120;2024-02-26T22:25:07;34.50;;;18.40;;
83747;SDS011;73737;52.364;17.120;2024-02-26T22:27:38;41.20;;;18.90;;
83747;SDS011;73737;52.364;17.120;2024-02-26T22:30:07;32.60;;;18.80;;
83747;SDS011;73737;52.364;17.120;2024-02-26T22:32:36;38.10;;;20.50;;
83747;SDS011;73737;52.364;17.120;2024-02-26T22:35:05;31.10;;;17.30;;
83747;SDS011;73737;52.364;17.120;2024-02-26T22:37:34;36.30;;;19.30;;
83747;SDS011;73737;52.364;17.120;2024-02-26T22:40:03;39.30;;;20.40;;
83747;SDS011;73737;52.364;17.120;2024-02-26T22:42:33;34.30;;;18.80;;
83747;SDS011;73737;52.364;17.120;2024-02-26T22:45:04;37.50;;;20.30;;
83747;SDS011;73737;52.364;17.120;2024-02-26T22:47:34;36.70;;;20.80;;
83747;SDS011;73737;52.364;17.120;2024-02-26T22:50:03;34.10;;;17.30;;
83747;SDS011;73737;52.364;17.120;2024-02-26T22:52:32;39.10;;;20.70;;
83747;SDS011;73737;52.364;17.120;2024-02-26T22:55:01;41.00;;;20.70;;
83747;SDS011;73737;52.364;17.120;2024-02-26T22:57:29;39.60;;;21.00;;
83747;SDS011;73737;52.364;17.120;2024-02-26T22:59:58;38.40;;;21.60;;
83747;SDS011;73737;52.364;17.120;2024-02-26T23:02:27;35.30;;;19.20;;
83747;SDS011;73737;52.364;17.120;2024-02-26T23:04:56;39.40;;;21.80;;
83747;SDS011;73737;52.364;17.120;2024-02-26T23:07:25;33.80;;;20.00;;
83747;SDS011;73737;52.364;17.120;2024-02-26T23:09:53;38.90;;;20.20;;
83747;SDS011;73737;52.364;17.120;2024-02-26T23:12:22;39.50;;;22.10;;
83747;SDS011;73737;52.364;17.120;2024-02-26T23:14:51;39.40;;;20.50;;
83747;SDS011;73737;52.364;17.120;2024-02-26T23:17:19;36.90;;;21.20;;
83747;SDS011;73737;52.364;17.120;2024-02-26T23:19:48;42.60;;;22.20;;
83747;SDS011;73737;52.364;17.120;2024-02-26T23:22:17;40.60;;;23.00;;
83747;SDS011;73737;52.364;17.120;2024-02-26T23:24:45;38.90;;;19.00;;
83747;SDS011;73737;52.364;17.120;2024-02-26T23:27:14;46.20;;;22.20;;
83747;SDS011;73737;52.364;17.120;2024-02-26T23:29:43;39.50;;;21.90;;
83747;SDS011;73737;52.364;17.120;2024-02-26T23:32:12;39.50;;;21.60;;
83747;SDS011;73737;52.364;17.120;2024-02-26T23:34:41;40.30;;;21.10;;
83747;SDS011;73737;52.364;17.120;2024-02-26T23:37:12;38.80;;;20.70;;
83747;SDS011;73737;52.364;17.120;2024-02-26T23:39:41;32.40;;;19.00;;
83747;SDS011;73737;52.364;17.120;2024-02-26T23:42:09;41.40;;;21.10;;
83747;SDS011;73737;52.364;17.120;2024-02-26T23:44:39;44.60;;;22.90;;
83747;SDS011;73737;52.364;17.120;2024-02-26T23:47:08;40.70;;;22.40;;
83747;SDS011;73737;52.364;17.120;2024-02-26T23:49:37;43.30;;;23.20;;
83747;SDS011;73737;52.364;17.120;2024-02-26T23:52:05;38.20;;;21.30;;
83747;SDS011;73737;52.364;17.120;2024-02-26T23:54:39;38.30;;;22.40;;
83747;SDS011;73737;52.364;17.120;2024-02-26T23:57:08;41.40;;;24.60;;
83747;SDS011;73737;52.364;17.120;2024-02-26T23:59:39;35.90;;;21.60;;
